createdAt,value
2017-10-01T00:00:21.782Z,55.9
2017-10-01T00:01:26.552Z,56.1
2017-10-01T00:02:29.837Z,55.7
2017-10-01T00:03:31.501Z,55.5
2017-10-01T00:04:35.354Z,55.2
2017-10-01T00:05:36.926Z,55.3
2017-10-01T00:06:38.534Z,55.5
2017-10-01T00:07:41.235Z,54.9
2017-10-01T00:08:44.946Z,55.2
2017-10-01T00:09:48.893Z,55.1
2017-10-01T00:10:52.692Z,55.3
2017-10-01T00:11:56.830Z,55.3
2017-10-01T00:12:59.201Z,55.1
2017-10-01T00:14:01.609Z,55.1
2017-10-01T00:15:05.511Z,55.1
2017-10-01T00:16:08.120Z,55.3
2017-10-01T00:17:10.617Z,55.1
2017-10-01T00:18:12.821Z,54.9
2017-10-01T00:19:15.210Z,55.5
2017-10-01T00:20:17.434Z,55.5
2017-10-01T00:21:19.376Z,55.7
2017-10-01T00:22:20.977Z,55.6
2017-10-01T00:23:24.613Z,55.3
2017-10-01T00:24:26.213Z,55.5
2017-10-01T00:25:27.825Z,55.0
2017-10-01T00:26:30.189Z,55.2
2017-10-01T00:27:33.879Z,55.3
2017-10-01T00:28:37.865Z,54.7
2017-10-01T00:29:41.228Z,55.0
2017-10-01T00:30:44.222Z,55.2
2017-10-01T00:31:45.818Z,55.1
2017-10-01T00:32:49.512Z,55.1
2017-10-01T00:33:51.668Z,54.9
2017-10-01T00:34:54.572Z,55.0
2017-10-01T00:35:57.654Z,54.8
2017-10-01T00:36:59.838Z,55.3
2017-10-01T00:38:02.093Z,55.2
2017-10-01T00:39:05.629Z,55.0
2017-10-01T00:40:07.743Z,54.8
2017-10-01T00:41:10.159Z,54.8
2017-10-01T00:42:12.889Z,55.0
2017-10-01T00:43:14.505Z,55.0
2017-10-01T00:44:16.112Z,55.4
2017-10-01T00:45:18.598Z,55.8
2017-10-01T00:46:24.704Z,55.9
2017-10-01T00:47:28.386Z,55.5
2017-10-01T00:48:32.883Z,56.0
2017-10-01T00:49:36.090Z,55.5
2017-10-01T00:50:38.343Z,55.7
2017-10-01T00:51:40.348Z,55.5
2017-10-01T00:52:42.419Z,55.1
2017-10-01T00:53:44.032Z,55.3
2017-10-01T00:54:45.636Z,54.7
2017-10-01T00:55:47.243Z,54.6
2017-10-01T00:56:48.855Z,54.2
2017-10-01T00:57:50.464Z,54.6
2017-10-01T00:58:52.069Z,54.6
2017-10-01T00:59:53.677Z,54.7
2017-10-01T01:00:55.287Z,54.6
2017-10-01T01:01:56.896Z,54.5
2017-10-01T01:02:58.500Z,54.5
2017-10-01T01:04:00.108Z,54.4
2017-10-01T01:05:01.720Z,54.5
2017-10-01T01:06:03.334Z,54.4
2017-10-01T01:07:04.937Z,54.6
2017-10-01T01:08:06.546Z,55.4
2017-10-01T01:09:08.157Z,55.1
2017-10-01T01:10:09.764Z,55.7
2017-10-01T01:11:11.367Z,55.8
2017-10-01T01:12:12.982Z,55.6
2017-10-01T01:13:14.589Z,55.4
2017-10-01T01:14:16.196Z,55.7
2017-10-01T01:16:23.270Z,55.5
2017-10-01T01:17:24.875Z,54.8
2017-10-01T01:18:26.489Z,55.1
2017-10-01T01:19:28.097Z,55.4
2017-10-01T01:20:29.703Z,54.9
2017-10-01T01:21:31.316Z,55.6
2017-10-01T01:22:32.923Z,55.0
2017-10-01T01:23:34.571Z,55.0
2017-10-01T01:24:36.176Z,55.0
2017-10-01T01:25:37.791Z,55.2
2017-10-01T01:26:39.400Z,55.4
2017-10-01T01:27:41.007Z,54.8
2017-10-01T01:28:42.620Z,54.4
2017-10-01T01:29:44.224Z,54.7
2017-10-01T01:30:45.835Z,54.7
2017-10-01T01:31:47.452Z,54.5
2017-10-01T01:32:49.054Z,54.7
2017-10-01T01:33:50.665Z,55.3
2017-10-01T01:34:52.278Z,55.3
2017-10-01T01:35:53.878Z,55.1
2017-10-01T01:36:55.483Z,55.1
2017-10-01T01:37:57.096Z,55.3
2017-10-01T01:38:58.707Z,55.2
2017-10-01T01:40:00.311Z,55.5
2017-10-01T01:41:01.922Z,54.6
2017-10-01T01:42:03.531Z,54.5
2017-10-01T01:43:05.142Z,54.5
2017-10-01T01:44:06.741Z,54.5
2017-10-01T01:45:08.346Z,54.2
2017-10-01T01:46:09.956Z,54.1
2017-10-01T01:47:11.561Z,53.9
2017-10-01T01:48:13.168Z,53.9
2017-10-01T01:49:14.775Z,53.9
2017-10-01T01:50:16.381Z,53.7
2017-10-01T01:51:17.987Z,53.5
2017-10-01T01:52:19.596Z,52.6
2017-10-01T01:53:22.242Z,52.9
2017-10-01T01:54:23.847Z,52.9
2017-10-01T01:55:25.461Z,52.8
2017-10-01T01:56:27.063Z,53.4
2017-10-01T01:57:28.672Z,53.8
2017-10-01T01:58:30.275Z,53.8
2017-10-01T01:59:31.885Z,54.3
2017-10-01T02:00:33.490Z,53.9
2017-10-01T02:01:35.095Z,54.5
2017-10-01T02:02:36.713Z,54.6
2017-10-01T02:03:38.321Z,54.2
2017-10-01T02:04:39.930Z,54.2
2017-10-01T02:05:41.533Z,54.2
2017-10-01T02:06:43.139Z,54.4
2017-10-01T02:07:44.753Z,54.4
2017-10-01T02:08:46.359Z,54.4
2017-10-01T02:09:47.967Z,54.8
2017-10-01T02:10:49.577Z,54.7
2017-10-01T02:11:51.180Z,54.5
2017-10-01T02:12:52.793Z,54.7
2017-10-01T02:13:54.396Z,54.6
2017-10-01T02:14:56.010Z,54.3
2017-10-01T02:15:57.619Z,54.7
2017-10-01T02:16:59.231Z,54.5
2017-10-01T02:18:00.844Z,54.7
2017-10-01T02:19:02.450Z,54.4
2017-10-01T02:20:04.053Z,54.3
2017-10-01T02:21:05.661Z,54.1
2017-10-01T02:22:07.265Z,54.1
2017-10-01T02:23:08.877Z,54.2
2017-10-01T02:24:10.484Z,54.1
2017-10-01T02:25:12.099Z,53.6
2017-10-01T02:26:13.700Z,53.8
2017-10-01T02:27:15.314Z,53.6
2017-10-01T02:28:16.921Z,54.0
2017-10-01T02:29:18.524Z,54.0
2017-10-01T02:30:20.132Z,54.0
2017-10-01T02:31:21.741Z,53.1
2017-10-01T02:32:23.351Z,53.6
2017-10-01T02:33:24.955Z,53.7
2017-10-01T02:34:26.564Z,53.3
2017-10-01T02:35:28.169Z,53.7
2017-10-01T02:36:29.774Z,53.3
2017-10-01T02:37:31.386Z,53.4
2017-10-01T02:38:32.995Z,53.9
2017-10-01T02:39:34.602Z,53.4
2017-10-01T02:40:36.206Z,53.3
2017-10-01T02:41:37.817Z,53.2
2017-10-01T02:42:39.427Z,53.4
2017-10-01T02:43:41.031Z,53.3
2017-10-01T02:44:42.636Z,53.3
2017-10-01T02:45:44.257Z,53.4
2017-10-01T02:46:45.864Z,54.0
2017-10-01T02:47:47.465Z,53.9
2017-10-01T02:48:49.069Z,53.8
2017-10-01T02:49:50.679Z,53.5
2017-10-01T02:50:52.285Z,53.4
2017-10-01T02:51:53.889Z,53.0
2017-10-01T02:52:55.500Z,53.0
2017-10-01T02:53:57.104Z,53.3
2017-10-01T02:54:58.726Z,52.8
2017-10-01T02:56:00.317Z,52.8
2017-10-01T02:57:01.928Z,52.8
2017-10-01T02:58:03.527Z,52.6
2017-10-01T02:59:05.138Z,52.7
2017-10-01T03:00:06.740Z,52.9
2017-10-01T03:01:08.355Z,52.6
2017-10-01T03:02:09.955Z,53.2
2017-10-01T03:03:11.565Z,53.4
2017-10-01T03:04:13.168Z,53.4
2017-10-01T03:05:14.780Z,53.2
2017-10-01T03:06:16.381Z,53.3
2017-10-01T03:07:17.988Z,53.2
2017-10-01T03:08:19.601Z,53.8
2017-10-01T03:09:21.201Z,53.8
2017-10-01T03:10:22.810Z,53.4
2017-10-01T03:11:24.413Z,53.2
2017-10-01T03:12:26.021Z,53.1
2017-10-01T03:13:27.627Z,52.8
2017-10-01T03:14:29.240Z,53.2
2017-10-01T03:15:30.844Z,52.4
2017-10-01T03:16:32.454Z,53.2
2017-10-01T03:17:34.054Z,52.9
2017-10-01T03:18:35.668Z,53.1
2017-10-01T03:19:37.272Z,53.3
2017-10-01T03:20:38.884Z,52.7
2017-10-01T03:21:40.486Z,53.2
2017-10-01T03:22:42.099Z,52.8
2017-10-01T03:23:43.705Z,52.3
2017-10-01T03:24:45.308Z,52.3
2017-10-01T03:25:46.930Z,52.1
2017-10-01T03:26:48.524Z,52.1
2017-10-01T03:27:50.131Z,51.7
2017-10-01T03:28:51.734Z,51.4
2017-10-01T03:29:53.340Z,51.2
2017-10-01T03:30:54.950Z,51.3
2017-10-01T03:31:56.556Z,51.3
2017-10-01T03:32:58.158Z,51.9
2017-10-01T03:33:59.764Z,51.9
2017-10-01T03:35:01.376Z,51.4
2017-10-01T03:36:02.987Z,51.3
2017-10-01T03:37:04.592Z,51.4
2017-10-01T03:38:06.197Z,51.5
2017-10-01T03:39:07.808Z,51.8
2017-10-01T03:40:09.418Z,52.2
2017-10-01T03:41:11.018Z,51.9
2017-10-01T03:42:12.629Z,51.9
2017-10-01T03:43:14.231Z,52.4
2017-10-01T03:44:15.851Z,52.3
2017-10-01T03:45:17.445Z,52.2
2017-10-01T03:46:19.053Z,52.1
2017-10-01T03:47:20.657Z,52.0
2017-10-01T03:48:22.266Z,52.3
2017-10-01T03:49:23.868Z,52.1
2017-10-01T03:50:25.474Z,52.2
2017-10-01T03:51:27.087Z,52.3
2017-10-01T03:52:28.692Z,52.7
2017-10-01T03:53:30.295Z,52.3
2017-10-01T03:54:31.898Z,52.5
2017-10-01T03:55:33.510Z,52.5
2017-10-01T03:56:35.112Z,52.5
2017-10-01T03:57:36.727Z,52.2
2017-10-01T03:58:38.331Z,52.3
2017-10-01T03:59:39.941Z,52.4
2017-10-01T04:00:41.540Z,52.3
2017-10-01T04:01:43.152Z,52.3
2017-10-01T04:02:44.752Z,52.6
2017-10-01T04:03:46.363Z,52.4
2017-10-01T04:04:47.970Z,52.1
2017-10-01T04:05:49.573Z,52.3
2017-10-01T04:06:51.182Z,52.1
2017-10-01T04:07:52.787Z,52.2
2017-10-01T04:08:54.391Z,52.3
2017-10-01T04:09:56.005Z,52.0
2017-10-01T04:10:57.615Z,52.0
2017-10-01T04:11:59.208Z,52.0
2017-10-01T04:13:00.823Z,52.1
2017-10-01T04:14:02.423Z,51.8
2017-10-01T04:15:04.027Z,51.7
2017-10-01T04:16:05.642Z,51.4
2017-10-01T04:17:07.247Z,51.4
2017-10-01T04:18:08.852Z,51.7
2017-10-01T04:19:10.459Z,51.2
2017-10-01T04:20:12.070Z,51.3
2017-10-01T04:21:13.670Z,51.3
2017-10-01T04:22:15.278Z,51.3
2017-10-01T04:23:16.880Z,51.2
2017-10-01T04:24:18.490Z,51.4
2017-10-01T04:25:20.092Z,51.1
2017-10-01T04:26:21.705Z,51.3
2017-10-01T04:27:23.306Z,51.7
2017-10-01T04:28:24.919Z,51.3
2017-10-01T04:29:26.522Z,50.9
2017-10-01T04:30:28.133Z,51.1
2017-10-01T04:31:29.741Z,50.7
2017-10-01T04:32:31.343Z,50.4
2017-10-01T04:33:32.949Z,50.4
2017-10-01T04:34:34.564Z,50.4
2017-10-01T04:35:36.170Z,50.1
2017-10-01T04:36:37.771Z,49.6
2017-10-01T04:37:39.383Z,49.7
2017-10-01T04:38:40.982Z,49.3
2017-10-01T04:39:42.588Z,48.9
2017-10-01T04:40:44.197Z,49.2
2017-10-01T04:41:45.807Z,49.1
2017-10-01T04:42:47.405Z,49.0
2017-10-01T04:43:49.009Z,49.2
2017-10-01T04:44:50.617Z,49.5
2017-10-01T04:45:52.223Z,49.1
2017-10-01T04:46:53.832Z,49.1
2017-10-01T04:47:55.434Z,48.9
2017-10-01T04:48:57.047Z,49.7
2017-10-01T04:49:58.647Z,49.6
2017-10-01T04:51:00.255Z,49.7
2017-10-01T04:52:01.860Z,49.6
2017-10-01T04:53:03.464Z,49.9
2017-10-01T04:54:05.065Z,49.7
2017-10-01T04:55:06.678Z,49.7
2017-10-01T04:56:08.287Z,49.7
2017-10-01T04:57:09.896Z,49.7
2017-10-01T04:58:11.495Z,49.4
2017-10-01T04:59:13.100Z,49.7
2017-10-01T05:00:14.709Z,49.7
2017-10-01T05:01:16.312Z,49.6
2017-10-01T05:02:17.917Z,49.9
2017-10-01T05:03:19.527Z,49.6
2017-10-01T05:04:21.134Z,49.7
2017-10-01T05:05:22.736Z,49.5
2017-10-01T05:06:24.343Z,49.7
2017-10-01T05:07:25.954Z,49.6
2017-10-01T05:08:27.558Z,49.7
2017-10-01T05:09:29.162Z,49.4
2017-10-01T05:10:30.772Z,49.9
2017-10-01T05:11:32.373Z,49.9
2017-10-01T05:12:33.979Z,49.2
2017-10-01T05:13:35.583Z,49.4
2017-10-01T05:14:37.194Z,48.9
2017-10-01T05:15:38.803Z,49.2
2017-10-01T05:16:40.410Z,49.0
2017-10-01T05:17:42.021Z,49.2
2017-10-01T05:18:43.625Z,49.4
2017-10-01T05:19:45.234Z,49.0
2017-10-01T05:20:46.844Z,49.1
2017-10-01T05:21:48.445Z,49.1
2017-10-01T05:22:50.054Z,49.3
2017-10-01T05:23:51.665Z,49.2
2017-10-01T05:24:53.277Z,49.3
2017-10-01T05:25:54.880Z,48.7
2017-10-01T05:26:56.499Z,48.7
2017-10-01T05:27:58.101Z,48.5
2017-10-01T05:28:59.708Z,48.3
2017-10-01T05:30:01.320Z,48.5
2017-10-01T05:31:02.925Z,48.6
2017-10-01T05:32:04.540Z,48.1
2017-10-01T05:33:06.147Z,47.8
2017-10-01T05:34:07.756Z,48.3
2017-10-01T05:35:09.367Z,48.1
2017-10-01T05:36:10.975Z,47.9
2017-10-01T05:37:12.589Z,47.8
2017-10-01T05:38:14.197Z,47.9
2017-10-01T05:39:15.811Z,47.5
2017-10-01T05:40:17.413Z,47.4
2017-10-01T05:41:19.025Z,47.5
2017-10-01T05:42:20.629Z,46.9
2017-10-01T05:43:23.615Z,46.9
2017-10-01T05:44:25.219Z,46.9
2017-10-01T05:45:26.833Z,46.9
2017-10-01T05:46:28.439Z,47.0
2017-10-01T05:47:30.053Z,46.9
2017-10-01T05:48:31.655Z,47.2
2017-10-01T05:49:33.264Z,46.5
2017-10-01T05:50:34.870Z,46.7
2017-10-01T05:51:36.479Z,46.0
2017-10-01T05:52:38.091Z,45.9
2017-10-01T05:53:39.698Z,45.8
2017-10-01T05:54:41.311Z,45.8
2017-10-01T05:55:42.915Z,45.9
2017-10-01T05:56:44.528Z,45.8
2017-10-01T05:57:46.133Z,45.9
2017-10-01T05:58:47.748Z,45.4
2017-10-01T05:59:49.357Z,45.6
2017-10-01T06:00:50.974Z,45.0
2017-10-01T06:01:52.586Z,45.4
2017-10-01T06:02:54.208Z,45.2
2017-10-01T06:03:55.820Z,44.9
2017-10-01T06:04:57.438Z,44.8
2017-10-01T06:05:59.045Z,44.4
2017-10-01T06:07:00.657Z,44.2
2017-10-01T06:08:02.267Z,44.3
2017-10-01T06:09:03.881Z,44.1
2017-10-01T06:10:05.493Z,44.0
2017-10-01T06:11:07.100Z,44.0
2017-10-01T06:12:08.712Z,43.7
2017-10-01T06:13:10.327Z,43.5
2017-10-01T06:14:11.942Z,44.0
2017-10-01T06:15:13.550Z,43.5
2017-10-01T06:16:15.186Z,43.0
2017-10-01T06:17:16.771Z,43.0
2017-10-01T06:18:18.428Z,42.7
2017-10-01T06:19:20.049Z,42.6
2017-10-01T06:20:21.658Z,42.5
2017-10-01T06:21:23.266Z,42.6
2017-10-01T06:22:24.885Z,42.6
2017-10-01T06:23:26.500Z,42.6
2017-10-01T06:24:28.102Z,42.6
2017-10-01T06:25:29.718Z,42.3
2017-10-01T06:26:31.330Z,42.4
2017-10-01T06:27:32.940Z,41.9
2017-10-01T06:28:34.552Z,41.9
2017-10-01T06:29:36.170Z,41.8
2017-10-01T06:30:37.781Z,41.5
2017-10-01T06:31:39.388Z,41.9
2017-10-01T06:32:41.000Z,41.8
2017-10-01T06:33:42.609Z,41.4
2017-10-01T06:34:44.221Z,41.3
2017-10-01T06:35:45.836Z,41.5
2017-10-01T06:36:47.455Z,41.3
2017-10-01T06:37:49.071Z,41.1
2017-10-01T06:38:50.678Z,41.2
2017-10-01T06:39:52.292Z,40.7
2017-10-01T06:40:53.906Z,40.7
2017-10-01T06:41:55.765Z,40.9
2017-10-01T06:42:57.388Z,40.6
2017-10-01T06:43:58.995Z,41.3
2017-10-01T06:45:00.610Z,41.9
2017-10-01T06:46:02.227Z,41.4
2017-10-01T06:47:03.832Z,42.3
2017-10-01T06:48:05.437Z,44.7
2017-10-01T06:49:07.059Z,43.7
2017-10-01T06:50:08.669Z,43.9
2017-10-01T06:51:10.282Z,51.8
2017-10-01T06:52:11.897Z,70.5
2017-10-01T06:53:13.509Z,74.3
2017-10-01T06:54:15.125Z,94.6
2017-10-01T06:55:16.737Z,92.0
2017-10-01T06:56:18.354Z,88.4
2017-10-01T06:57:19.967Z,87.5
2017-10-01T06:58:21.589Z,88.8
2017-10-01T06:59:23.198Z,88.2
2017-10-01T07:00:24.816Z,98.7
2017-10-01T07:01:26.429Z,92.3
2017-10-01T07:02:28.048Z,93.2
2017-10-01T07:03:29.662Z,90.7
2017-10-01T07:04:31.289Z,93.9
2017-10-01T07:05:32.909Z,95.8
2017-10-01T07:06:34.523Z,96.9
2017-10-01T07:07:36.135Z,95.7
2017-10-01T07:08:37.757Z,94.6
2017-10-01T07:09:39.386Z,95.2
2017-10-01T07:10:40.991Z,92.5
2017-10-01T07:11:42.607Z,91.1
2017-10-01T07:12:44.230Z,95.0
2017-10-01T07:13:45.851Z,91.2
2017-10-01T07:14:47.461Z,87.2
2017-10-01T07:15:49.076Z,87.5
2017-10-01T07:16:50.698Z,90.7
2017-10-01T07:17:52.317Z,92.8
2017-10-01T07:18:53.932Z,91.1
2017-10-01T07:19:55.547Z,92.4
2017-10-01T07:20:57.170Z,95.4
2017-10-01T07:21:58.788Z,93.7
2017-10-01T07:23:00.413Z,93.7
2017-10-01T07:24:02.032Z,90.7
2017-10-01T07:25:03.649Z,91.0
2017-10-01T07:26:05.268Z,86.7
2017-10-01T07:27:06.895Z,90.0
2017-10-01T07:28:08.516Z,93.3
2017-10-01T07:29:10.129Z,89.8
2017-10-01T07:30:11.754Z,92.9
2017-10-01T07:31:13.371Z,96.8
2017-10-01T07:32:14.989Z,94.4
2017-10-01T07:33:16.613Z,96.0
2017-10-01T07:34:18.241Z,93.2
2017-10-01T07:35:19.857Z,89.1
2017-10-01T07:36:21.473Z,85.7
2017-10-01T07:37:23.101Z,83.6
2017-10-01T07:38:24.721Z,80.2
2017-10-01T07:39:26.336Z,82.3
2017-10-01T07:40:27.962Z,78.8
2017-10-01T07:41:29.580Z,83.7
2017-10-01T07:42:31.206Z,76.5
2017-10-01T07:43:32.822Z,76.8
2017-10-01T07:44:34.443Z,79.7
2017-10-01T07:45:36.062Z,79.4
2017-10-01T07:46:37.684Z,82.7
2017-10-01T07:47:39.300Z,86.7
2017-10-01T07:48:40.923Z,88.8
2017-10-01T07:49:42.539Z,88.4
2017-10-01T07:50:44.165Z,88.0
2017-10-01T07:51:45.779Z,89.3
2017-10-01T07:52:47.399Z,91.2
2017-10-01T07:53:49.019Z,91.0
2017-10-01T07:54:50.636Z,90.6
2017-10-01T07:55:52.263Z,90.9
2017-10-01T07:56:53.882Z,91.4
2017-10-01T07:57:55.498Z,91.7
2017-10-01T07:58:57.112Z,90.5
2017-10-01T07:59:58.735Z,91.0
2017-10-01T08:01:00.351Z,91.3
2017-10-01T08:02:01.973Z,91.4
2017-10-01T08:03:03.589Z,91.5
2017-10-01T08:04:05.212Z,91.7
2017-10-01T08:05:06.826Z,92.7
2017-10-01T08:06:08.451Z,92.5
2017-10-01T08:07:10.064Z,93.6
2017-10-01T08:08:11.688Z,92.6
2017-10-01T08:09:13.306Z,93.2
2017-10-01T08:10:14.929Z,92.0
2017-10-01T08:11:16.548Z,91.5
2017-10-01T08:12:18.170Z,88.4
2017-10-01T08:13:22.300Z,85.9
2017-10-01T08:14:23.925Z,79.0
2017-10-01T08:15:25.543Z,79.5
2017-10-01T08:16:27.166Z,71.3
2017-10-01T08:17:28.783Z,71.9
2017-10-01T08:18:30.407Z,69.4
2017-10-01T08:19:32.028Z,68.7
2017-10-01T08:20:33.643Z,64.5
2017-10-01T08:21:35.265Z,62.0
2017-10-01T08:22:36.888Z,63.0
2017-10-01T08:23:38.517Z,62.0
2017-10-01T08:24:40.134Z,58.4
2017-10-01T08:25:41.754Z,57.2
2017-10-01T08:26:43.379Z,54.7
2017-10-01T08:27:45.003Z,53.5
2017-10-01T08:28:46.623Z,50.7
2017-10-01T08:29:48.245Z,52.1
2017-10-01T08:30:49.879Z,50.9
2017-10-01T08:31:51.499Z,49.2
2017-10-01T08:32:53.118Z,48.5
2017-10-01T08:33:54.749Z,48.2
2017-10-01T08:34:56.379Z,46.9
2017-10-01T08:35:57.997Z,48.1
2017-10-01T08:36:59.620Z,47.7
2017-10-01T08:38:01.247Z,47.2
2017-10-01T08:39:02.875Z,47.3
2017-10-01T08:40:04.503Z,46.0
2017-10-01T08:41:07.031Z,45.9
2017-10-01T08:42:08.640Z,44.6
2017-10-01T08:43:10.376Z,43.3
2017-10-01T08:44:12.051Z,43.1
2017-10-01T08:45:13.673Z,42.7
2017-10-01T08:46:15.300Z,40.2
2017-10-01T08:47:16.931Z,39.3
2017-10-01T08:48:18.561Z,38.7
2017-10-01T08:49:20.180Z,40.0
2017-10-01T08:50:21.802Z,37.1
2017-10-01T08:51:23.432Z,38.4
2017-10-01T08:52:25.055Z,37.8
2017-10-01T08:53:26.687Z,35.4
2017-10-01T08:54:28.309Z,37.4
2017-10-01T08:55:29.944Z,38.5
2017-10-01T08:56:31.566Z,35.9
2017-10-01T08:57:33.197Z,34.8
2017-10-01T08:58:34.830Z,36.3
2017-10-01T08:59:36.464Z,35.3
2017-10-01T09:00:38.089Z,35.0
2017-10-01T09:01:39.721Z,33.7
2017-10-01T09:02:41.352Z,36.4
2017-10-01T09:03:42.985Z,34.2
2017-10-01T09:04:44.606Z,33.2
2017-10-01T09:05:46.238Z,34.5
2017-10-01T09:06:48.059Z,35.1
2017-10-01T09:07:49.684Z,34.2
2017-10-01T09:08:51.321Z,34.7
2017-10-01T09:09:52.952Z,34.8
2017-10-01T09:10:54.582Z,37.1
2017-10-01T09:11:56.207Z,38.1
2017-10-01T09:12:57.842Z,38.1
2017-10-01T09:13:59.464Z,37.5
2017-10-01T09:15:01.102Z,39.3
2017-10-01T09:16:02.730Z,37.1
2017-10-01T09:17:04.365Z,37.1
2017-10-01T09:18:05.995Z,36.9
2017-10-01T09:19:07.629Z,35.1
2017-10-01T09:20:09.253Z,37.9
2017-10-01T09:21:10.888Z,37.4
2017-10-01T09:22:12.515Z,37.6
2017-10-01T09:23:14.138Z,35.4
2017-10-01T09:24:15.773Z,37.1
2017-10-01T09:25:17.410Z,35.3
2017-10-01T09:26:19.042Z,38.1
2017-10-01T09:27:20.663Z,35.6
2017-10-01T09:28:22.297Z,37.2
2017-10-01T09:29:23.928Z,37.4
2017-10-01T09:30:25.579Z,37.2
2017-10-01T09:31:27.212Z,37.1
2017-10-01T09:32:28.843Z,35.3
2017-10-01T09:33:30.570Z,35.3
2017-10-01T09:34:32.192Z,38.0
2017-10-01T09:35:33.821Z,36.8
2017-10-01T09:36:35.455Z,36.6
2017-10-01T09:37:38.542Z,36.6
2017-10-01T09:38:42.024Z,39.0
2017-10-01T09:39:44.484Z,35.3
2017-10-01T09:40:46.110Z,34.8
2017-10-01T09:41:47.741Z,34.6
2017-10-01T09:42:51.027Z,35.3
2017-10-01T09:43:52.705Z,36.1
2017-10-01T09:44:54.330Z,35.1
2017-10-01T09:45:55.967Z,37.3
2017-10-01T09:46:57.593Z,34.9
2017-10-01T09:47:59.220Z,34.8
2017-10-01T09:49:00.856Z,34.9
2017-10-01T09:50:02.484Z,34.7
2017-10-01T09:51:04.116Z,35.7
2017-10-01T09:52:05.743Z,36.8
2017-10-01T09:53:07.382Z,39.3
2017-10-01T09:54:09.006Z,39.3
2017-10-01T09:55:10.641Z,38.2
2017-10-01T09:56:12.266Z,37.8
2017-10-01T09:57:13.902Z,36.2
2017-10-01T09:58:15.528Z,37.4
2017-10-01T09:59:17.228Z,35.7
2017-10-01T10:00:28.883Z,35.2
2017-10-01T10:01:36.973Z,36.2
2017-10-01T10:02:47.112Z,35.0
2017-10-01T10:03:48.702Z,37.2
2017-10-01T10:04:50.336Z,36.4
2017-10-01T10:05:51.963Z,35.9
2017-10-01T10:06:53.599Z,34.0
2017-10-01T10:07:55.227Z,36.9
2017-10-01T10:09:06.996Z,36.7
2017-10-01T10:10:18.830Z,36.6
2017-10-01T10:11:30.272Z,37.4
2017-10-01T10:12:34.079Z,34.5
2017-10-01T10:13:46.189Z,34.1
2017-10-01T10:14:57.196Z,34.9
2017-10-01T10:16:07.485Z,33.6
2017-10-01T10:17:19.694Z,33.2
2017-10-01T10:18:26.162Z,34.3
2017-10-01T10:19:37.672Z,35.8
2017-10-01T10:20:49.490Z,37.4
2017-10-01T10:21:59.618Z,34.6
2017-10-01T10:23:11.699Z,36.0
2017-10-01T10:24:20.252Z,35.0
2017-10-01T10:25:26.974Z,32.9
2017-10-01T10:26:28.600Z,36.4
2017-10-01T10:27:30.229Z,34.1
2017-10-01T10:28:31.860Z,33.7
2017-10-01T10:29:33.496Z,35.1
2017-10-01T10:30:44.671Z,35.4
2017-10-01T10:31:55.744Z,36.8
2017-10-01T10:32:57.377Z,36.4
2017-10-01T10:33:59.009Z,36.7
2017-10-01T10:35:00.637Z,35.1
2017-10-01T10:36:02.265Z,34.3
2017-10-01T10:37:03.903Z,35.5
2017-10-01T10:38:05.534Z,36.5
2017-10-01T10:39:07.164Z,40.1
2017-10-01T10:40:08.799Z,38.8
2017-10-01T10:41:10.422Z,38.1
2017-10-01T10:42:12.051Z,38.6
2017-10-01T10:43:13.685Z,40.2
2017-10-01T10:44:15.317Z,39.4
2017-10-01T10:45:16.946Z,37.6
2017-10-01T10:46:18.578Z,37.9
2017-10-01T10:47:20.210Z,36.0
2017-10-01T10:48:21.842Z,35.2
2017-10-01T10:49:23.715Z,35.4
2017-10-01T10:50:25.345Z,37.1
2017-10-01T10:51:26.974Z,36.9
2017-10-01T10:52:29.332Z,37.9
2017-10-01T10:53:30.966Z,40.4
2017-10-01T10:54:32.593Z,36.5
2017-10-01T10:55:34.222Z,37.1
2017-10-01T10:56:35.845Z,36.8
2017-10-01T10:57:37.477Z,37.2
2017-10-01T10:58:39.111Z,38.8
2017-10-01T10:59:40.742Z,36.4
2017-10-01T11:00:42.368Z,37.1
2017-10-01T11:01:43.995Z,37.8
2017-10-01T11:02:45.628Z,38.2
2017-10-01T11:03:47.254Z,39.4
2017-10-01T11:04:48.885Z,38.0
2017-10-01T11:05:50.510Z,39.4
2017-10-01T11:06:52.810Z,38.8
2017-10-01T11:07:55.044Z,37.1
2017-10-01T11:08:57.881Z,37.2
2017-10-01T11:10:00.050Z,38.0
2017-10-01T11:11:01.689Z,36.0
2017-10-01T11:12:03.316Z,36.9
2017-10-01T11:13:04.946Z,37.3
2017-10-01T11:14:16.822Z,38.8
2017-10-01T11:15:29.025Z,37.6
2017-10-01T11:16:37.734Z,37.2
2017-10-01T11:17:39.319Z,37.9
2017-10-01T11:18:41.051Z,38.5
2017-10-01T11:19:42.680Z,37.6
2017-10-01T11:20:44.363Z,36.1
2017-10-01T11:21:47.184Z,37.8
2017-10-01T11:22:51.102Z,38.1
2017-10-01T11:23:53.928Z,36.4
2017-10-01T11:24:55.612Z,37.3
2017-10-01T11:25:57.067Z,38.9
2017-10-01T11:27:12.304Z,36.8
2017-10-01T11:28:28.478Z,38.9
2017-10-01T11:29:42.436Z,37.8
2017-10-01T11:31:01.529Z,38.7
2017-10-01T11:32:15.535Z,39.9
2017-10-01T11:33:28.959Z,41.4
2017-10-01T11:34:39.457Z,39.0
2017-10-01T11:35:48.698Z,39.6
2017-10-01T11:37:00.605Z,40.0
2017-10-01T11:38:14.247Z,40.8
2017-10-01T11:39:19.124Z,40.5
2017-10-01T11:40:30.458Z,43.2
2017-10-01T11:41:41.547Z,44.2
2017-10-01T11:42:55.018Z,45.3
2017-10-01T11:43:55.883Z,44.9
2017-10-01T11:45:07.448Z,43.7
2017-10-01T11:46:20.310Z,43.7
2017-10-01T11:47:31.169Z,45.1
2017-10-01T11:48:40.545Z,45.7
2017-10-01T11:49:52.466Z,44.0
2017-10-01T11:51:05.258Z,44.7
2017-10-01T11:52:16.829Z,44.5
2017-10-01T11:53:31.510Z,42.3
2017-10-01T11:54:43.977Z,42.0
2017-10-01T11:55:46.896Z,43.3
2017-10-01T11:57:01.674Z,42.7
2017-10-01T11:58:20.565Z,42.7
2017-10-01T11:59:34.599Z,43.1
2017-10-01T12:00:49.525Z,42.4
2017-10-01T12:02:04.210Z,41.7
2017-10-01T12:03:21.830Z,42.2
2017-10-01T12:04:36.501Z,41.6
2017-10-01T12:05:49.560Z,40.4
2017-10-01T12:07:09.874Z,41.2
2017-10-01T12:08:20.585Z,40.3
2017-10-01T12:09:24.224Z,40.5
2017-10-01T12:10:28.930Z,41.7
2017-10-01T12:11:31.210Z,41.8
2017-10-01T12:12:33.841Z,41.8
2017-10-01T12:13:50.733Z,41.1
2017-10-01T12:15:10.062Z,41.3
2017-10-01T12:16:26.977Z,41.2
2017-10-01T12:17:40.075Z,42.0
2017-10-01T12:18:54.063Z,43.4
2017-10-01T12:20:13.111Z,44.2
2017-10-01T12:21:22.822Z,43.1
2017-10-01T12:22:30.553Z,43.1
2017-10-01T12:23:45.498Z,43.9
2017-10-01T12:24:55.054Z,44.8
2017-10-01T12:26:03.490Z,44.5
2017-10-01T12:27:13.078Z,44.7
2017-10-01T12:28:30.471Z,45.6
2017-10-01T12:29:40.976Z,46.1
2017-10-01T12:30:47.423Z,45.6
2017-10-01T12:32:08.517Z,45.8
2017-10-01T12:33:18.978Z,46.0
2017-10-01T12:34:30.482Z,45.0
2017-10-01T12:35:36.831Z,44.5
2017-10-01T12:36:54.634Z,44.3
2017-10-01T12:38:13.084Z,44.8
2017-10-01T12:39:30.236Z,45.7
2017-10-01T12:40:47.660Z,45.5
2017-10-01T12:42:03.516Z,45.0
2017-10-01T12:43:21.489Z,44.7
2017-10-01T12:44:33.875Z,46.2
2017-10-01T12:45:42.605Z,45.7
2017-10-01T12:47:07.269Z,45.8
2017-10-01T12:48:15.979Z,45.7
2017-10-01T12:49:36.191Z,45.0
2017-10-01T12:50:42.737Z,46.0
2017-10-01T12:51:54.311Z,45.7
2017-10-01T12:53:10.021Z,45.8
2017-10-01T12:54:25.480Z,47.7
2017-10-01T12:55:48.995Z,47.3
2017-10-01T12:56:55.391Z,48.0
2017-10-01T12:58:09.754Z,48.1
2017-10-01T12:59:22.063Z,49.5
2017-10-01T13:00:33.999Z,49.6
2017-10-01T13:01:50.134Z,49.8
2017-10-01T13:03:01.985Z,50.2
2017-10-01T13:04:18.017Z,50.8
2017-10-01T13:05:33.325Z,50.7
2017-10-01T13:06:50.817Z,50.4
2017-10-01T13:08:05.877Z,50.7
2017-10-01T13:09:20.373Z,52.3
2017-10-01T13:10:36.042Z,51.7
2017-10-01T13:11:54.491Z,51.5
2017-10-01T13:13:13.109Z,53.6
2017-10-01T13:14:30.487Z,56.6
2017-10-01T13:15:42.552Z,56.0
2017-10-01T13:16:57.187Z,57.2
2017-10-01T13:18:04.583Z,56.9
2017-10-01T13:19:17.805Z,57.9
2017-10-01T13:20:28.996Z,58.2
2017-10-01T13:21:40.000Z,59.3
2017-10-01T13:22:54.140Z,59.9
2017-10-01T13:24:08.489Z,61.9
2017-10-01T13:25:20.094Z,62.3
2017-10-01T13:26:32.254Z,62.5
2017-10-01T13:27:46.079Z,63.6
2017-10-01T13:29:00.996Z,63.1
2017-10-01T13:30:06.308Z,63.9
2017-10-01T13:31:17.842Z,65.2
2017-10-01T13:32:30.123Z,65.4
2017-10-01T13:33:39.629Z,65.6
2017-10-01T13:34:40.533Z,65.9
2017-10-01T13:35:53.023Z,68.3
2017-10-01T13:36:59.084Z,68.1
2017-10-01T13:38:12.612Z,70.1
2017-10-01T13:39:26.508Z,70.9
2017-10-01T13:40:40.504Z,73.5
2017-10-01T13:41:58.193Z,74.1
2017-10-01T13:43:07.050Z,72.8
2017-10-01T13:44:21.700Z,72.6
2017-10-01T13:45:39.654Z,73.1
2017-10-01T13:46:57.135Z,72.7
2017-10-01T13:48:10.992Z,76.6
2017-10-01T13:49:23.340Z,72.8
2017-10-01T13:50:44.761Z,71.9
2017-10-01T13:51:56.497Z,70.7
2017-10-01T13:53:16.537Z,72.7
2017-10-01T13:54:27.501Z,72.2
2017-10-01T13:55:41.851Z,74.5
2017-10-01T13:56:59.009Z,74.0
2017-10-01T13:58:05.677Z,74.6
2017-10-01T13:59:23.391Z,74.4
2017-10-01T14:00:45.286Z,74.7
2017-10-01T14:02:07.376Z,75.3
2017-10-01T14:03:23.240Z,74.6
2017-10-01T14:04:44.655Z,74.8
2017-10-01T14:05:53.769Z,76.1
2017-10-01T14:07:09.689Z,77.7
2017-10-01T14:08:25.105Z,78.2
2017-10-01T14:09:35.587Z,78.7
2017-10-01T14:10:42.820Z,78.7
2017-10-01T14:11:53.167Z,78.8